Time;durP1;ratioP1;P1;durP2;ratioP2;P2;SDS_P1;SDS_P2;PMS_P1;PMS_P2;Temp;Humidity;BMP_temperature;BMP_pressure;BME280_temperature;BME280_humidity;BME280_pressure;Samples;Min_cycle;Max_cycle;Signal;HPM_P1;HPM_P2
2022/07/27 00:01:06;;;;;;;9.05;7.00;;;;;;;;;;4246677;33;20092;-62
2022/07/27 00:03:32;;;;;;;8.60;7.55;;;;;;;;;;4246506;33;20125;-62
2022/07/27 00:34:26;;;;;;;9.07;7.20;;;;;;;;;;4867751;27;20113;-61
2022/07/27 00:36:52;;;;;;;13.60;7.35;;;;;;;;;;4225763;33;20230;-64
2022/07/27 00:39:18;;;;;;;9.52;6.82;;;;;;;;;;4232245;33;20222;-64
2022/07/27 00:41:44;;;;;;;9.93;6.12;;;;;;;;;;4231863;33;20108;-64
2022/07/27 00:44:11;;;;;;;6.70;5.97;;;;;;;;;;4231314;33;20113;-64
2022/07/27 00:46:37;;;;;;;6.53;5.40;;;;;;;;;;4231732;33;20553;-64
2022/07/27 00:49:04;;;;;;;10.00;6.07;;;;;;;;;;4232108;33;20112;-64
2022/07/27 00:51:31;;;;;;;8.30;6.78;;;;;;;;;;4231860;33;20520;-64
2022/07/27 00:53:57;;;;;;;8.60;6.00;;;;;;;;;;4231961;33;20152;-64
2022/07/27 00:56:24;;;;;;;7.10;6.05;;;;;;;;;;4232002;33;20101;-64
2022/07/27 00:58:51;;;;;;;7.60;5.45;;;;;;;;;;4231714;33;20144;-64
2022/07/27 01:01:18;;;;;;;8.02;5.95;;;;;;;;;;4231665;33;20109;-66
2022/07/27 01:03:45;;;;;;;11.48;5.28;;;;;;;;;;4231866;33;20132;-67
2022/07/27 01:06:11;;;;;;;13.77;6.68;;;;;;;;;;4231609;33;20123;-66
2022/07/27 01:08:37;;;;;;;10.05;5.78;;;;;;;;;;4231789;33;20113;-66
2022/07/27 01:11:03;;;;;;;8.63;5.07;;;;;;;;;;4233008;33;20453;-66
2022/07/27 01:13:30;;;;;;;7.60;5.85;;;;;;;;;;4233820;33;20109;-66
2022/07/27 01:15:56;;;;;;;8.57;5.20;;;;;;;;;;4233575;33;20121;-66
2022/07/27 01:18:34;;;;;;;6.37;4.93;;;;;;;;;;4220366;33;20116;-66
2022/07/27 01:21:01;;;;;;;7.12;4.72;;;;;;;;;;4219677;33;20098;-67
2022/07/27 01:23:28;;;;;;;5.47;4.93;;;;;;;;;;4219780;34;20136;-67
2022/07/27 01:25:54;;;;;;;7.47;5.32;;;;;;;;;;4219595;33;20098;-67
2022/07/27 01:28:20;;;;;;;6.55;4.37;;;;;;;;;;4219800;34;20120;-66
2022/07/27 01:30:46;;;;;;;10.35;5.28;;;;;;;;;;4219642;33;20245;-67
2022/07/27 01:33:12;;;;;;;12.15;5.72;;;;;;;;;;4219710;34;20242;-67
2022/07/27 01:35:39;;;;;;;6.28;5.43;;;;;;;;;;4219641;33;20153;-67
2022/07/27 01:38:06;;;;;;;12.75;6.35;;;;;;;;;;4230249;33;20091;-66
2022/07/27 01:40:35;;;;;;;10.70;5.28;;;;;;;;;;4233675;33;20141;-67
2022/07/27 01:43:01;;;;;;;7.93;6.07;;;;;;;;;;4233655;33;20186;-67
2022/07/27 01:45:28;;;;;;;8.25;5.12;;;;;;;;;;4233616;33;20177;-67
2022/07/27 01:47:53;;;;;;;6.45;5.50;;;;;;;;;;4233501;33;20120;-67
2022/07/27 01:50:19;;;;;;;14.57;5.65;;;;;;;;;;4233651;33;20105;-67
2022/07/27 01:52:45;;;;;;;9.13;6.18;;;;;;;;;;4233359;33;20113;-67
2022/07/27 01:55:11;;;;;;;7.28;5.65;;;;;;;;;;4233488;33;20543;-67
2022/07/27 01:57:38;;;;;;;6.45;5.68;;;;;;;;;;4233597;33;20560;-69
2022/07/27 02:00:06;;;;;;;8.35;5.55;;;;;;;;;;4233360;33;20480;-67
2022/07/27 02:02:32;;;;;;;10.70;6.12;;;;;;;;;;4233383;33;20106;-67
2022/07/27 02:04:58;;;;;;;8.00;5.90;;;;;;;;;;4233493;33;20098;-66
2022/07/27 02:07:24;;;;;;;13.02;6.15;;;;;;;;;;4233185;33;20109;-67
2022/07/27 02:09:50;;;;;;;6.20;5.50;;;;;;;;;;4233284;33;20129;-67
2022/07/27 02:12:34;;;;;;;7.95;5.93;;;;;;;;;;4233283;33;20113;-67
2022/07/27 02:15:02;;;;;;;13.18;6.00;;;;;;;;;;4233392;33;20136;-67
2022/07/27 02:17:28;;;;;;;10.90;6.22;;;;;;;;;;4233221;33;20097;-67
2022/07/27 02:19:54;;;;;;;14.73;6.28;;;;;;;;;;4233342;33;20124;-66
2022/07/27 02:22:20;;;;;;;8.05;5.90;;;;;;;;;;4233219;33;20215;-67
2022/07/27 02:24:46;;;;;;;8.30;5.45;;;;;;;;;;4233575;33;20205;-67
2022/07/27 02:27:13;;;;;;;10.50;6.32;;;;;;;;;;4233182;33;20113;-67
2022/07/27 02:29:39;;;;;;;11.30;6.60;;;;;;;;;;4233264;33;20127;-67
2022/07/27 02:32:05;;;;;;;10.07;6.80;;;;;;;;;;4233134;33;20136;-67
2022/07/27 02:34:31;;;;;;;7.32;6.47;;;;;;;;;;4233291;33;20116;-66
2022/07/27 02:36:57;;;;;;;11.70;6.82;;;;;;;;;;4220062;33;20199;-67
2022/07/27 02:39:23;;;;;;;7.15;6.03;;;;;;;;;;4233048;33;20105;-67
2022/07/27 02:41:49;;;;;;;13.30;6.80;;;;;;;;;;4233381;33;20197;-67
2022/07/27 02:44:16;;;;;;;9.15;7.32;;;;;;;;;;4233167;33;20120;-67
2022/07/27 02:46:42;;;;;;;11.82;7.75;;;;;;;;;;4232906;33;20124;-67
2022/07/27 02:49:08;;;;;;;8.35;6.55;;;;;;;;;;4233129;33;20212;-67
2022/07/27 02:51:35;;;;;;;14.05;6.95;;;;;;;;;;4228259;33;20106;-67
2022/07/27 02:54:01;;;;;;;10.70;7.15;;;;;;;;;;4223460;33;20482;-67
2022/07/27 02:56:27;;;;;;;9.30;6.85;;;;;;;;;;4218948;34;20120;-67
2022/07/27 02:58:54;;;;;;;9.45;7.30;;;;;;;;;;4219135;33;20124;-68
2022/07/27 03:01:20;;;;;;;11.25;7.50;;;;;;;;;;4231713;33;20121;-67
2022/07/27 03:03:46;;;;;;;9.52;7.18;;;;;;;;;;4231402;33;20109;-67
2022/07/27 03:06:12;;;;;;;11.52;7.25;;;;;;;;;;4229519;33;20113;-67
2022/07/27 03:08:39;;;;;;;10.40;7.18;;;;;;;;;;4232927;33;20212;-67
2022/07/27 03:11:05;;;;;;;9.25;6.85;;;;;;;;;;4232763;33;20104;-67
2022/07/27 03:13:31;;;;;;;22.55;7.68;;;;;;;;;;4232859;33;20199;-67
2022/07/27 03:15:57;;;;;;;8.13;6.93;;;;;;;;;;4232714;33;20109;-67
2022/07/27 03:18:23;;;;;;;8.27;6.82;;;;;;;;;;4232754;33;20082;-68
2022/07/27 03:20:50;;;;;;;14.68;6.25;;;;;;;;;;4219496;33;20296;-69
2022/07/27 03:23:18;;;;;;;9.23;6.82;;;;;;;;;;4231826;33;20078;-70
2022/07/27 03:25:44;;;;;;;7.50;6.70;;;;;;;;;;4226371;33;20105;-69
2022/07/27 03:28:10;;;;;;;8.27;6.60;;;;;;;;;;4232696;33;20092;-69
2022/07/27 03:30:36;;;;;;;8.93;6.00;;;;;;;;;;4232210;33;20180;-69
2022/07/27 03:33:02;;;;;;;7.65;6.18;;;;;;;;;;4231977;33;20105;-70
2022/07/27 03:35:29;;;;;;;8.15;5.95;;;;;;;;;;4232127;33;20099;-69
2022/07/27 03:37:55;;;;;;;10.57;6.53;;;;;;;;;;4227299;33;20266;-69
2022/07/27 03:40:21;;;;;;;6.32;5.50;;;;;;;;;;4224279;33;20101;-69
2022/07/27 03:42:47;;;;;;;6.32;5.65;;;;;;;;;;4224278;33;20098;-69
2022/07/27 03:45:13;;;;;;;10.75;5.55;;;;;;;;;;4225008;33;20129;-69
2022/07/27 03:47:39;;;;;;;8.10;5.80;;;;;;;;;;4223757;33;20104;-69
2022/07/27 03:50:05;;;;;;;7.65;5.57;;;;;;;;;;4224623;33;20116;-70
2022/07/27 03:52:31;;;;;;;8.30;5.78;;;;;;;;;;4224960;33;20116;-70
2022/07/27 03:54:57;;;;;;;7.75;6.50;;;;;;;;;;4223799;33;20521;-69
2022/07/27 03:57:24;;;;;;;7.70;5.20;;;;;;;;;;4224505;33;20196;-69
2022/07/27 03:59:50;;;;;;;9.43;5.25;;;;;;;;;;4211624;33;20470;-69
2022/07/27 04:02:16;;;;;;;10.70;6.15;;;;;;;;;;4223364;33;20098;-71
2022/07/27 04:04:42;;;;;;;12.27;6.28;;;;;;;;;;4224700;33;20127;-71
2022/07/27 04:07:09;;;;;;;12.18;7.20;;;;;;;;;;4224460;33;20082;-73
2022/07/27 04:09:36;;;;;;;13.52;7.65;;;;;;;;;;4223314;33;20211;-72
2022/07/27 04:12:03;;;;;;;16.70;8.60;;;;;;;;;;4224803;33;20123;-73
2022/07/27 04:14:29;;;;;;;18.67;8.80;;;;;;;;;;4224664;33;20103;-64
2022/07/27 04:16:55;;;;;;;7.87;6.15;;;;;;;;;;4223280;33;20116;-70
2022/07/27 04:19:21;;;;;;;19.65;10.93;;;;;;;;;;4224759;33;20196;-65
2022/07/27 04:21:47;;;;;;;24.73;12.60;;;;;;;;;;4228238;33;20125;-64
2022/07/27 04:24:13;;;;;;;22.98;10.85;;;;;;;;;;4232120;33;20132;-64
2022/07/27 04:26:39;;;;;;;15.45;6.78;;;;;;;;;;4232076;33;20528;-64
2022/07/27 04:29:05;;;;;;;19.05;9.20;;;;;;;;;;4232146;33;20120;-63
2022/07/27 04:31:32;;;;;;;18.55;9.55;;;;;;;;;;4232055;33;20504;-64
2022/07/27 04:33:58;;;;;;;14.95;6.20;;;;;;;;;;4231949;33;20116;-64
2022/07/27 04:36:24;;;;;;;8.82;6.00;;;;;;;;;;4231783;33;20208;-65
2022/07/27 04:38:50;;;;;;;8.98;5.68;;;;;;;;;;4231482;33;20132;-65
2022/07/27 04:41:16;;;;;;;8.63;6.57;;;;;;;;;;4231421;33;20213;-65
2022/07/27 04:43:42;;;;;;;14.43;6.55;;;;;;;;;;4231273;33;20116;-65
2022/07/27 04:46:08;;;;;;;8.57;6.32;;;;;;;;;;4232539;33;20120;-65
2022/07/27 04:48:34;;;;;;;7.50;6.32;;;;;;;;;;4233119;33;20124;-65
2022/07/27 04:51:00;;;;;;;9.52;6.07;;;;;;;;;;4220007;33;20469;-65
2022/07/27 04:53:26;;;;;;;10.82;6.25;;;;;;;;;;4233014;33;20588;-65
2022/07/27 04:55:52;;;;;;;7.55;5.68;;;;;;;;;;4233093;33;20585;-64
2022/07/27 04:58:18;;;;;;;9.38;5.82;;;;;;;;;;4233022;33;20181;-65
2022/07/27 05:00:44;;;;;;;10.02;5.40;;;;;;;;;;4232954;33;20101;-64
2022/07/27 05:03:11;;;;;;;7.12;5.68;;;;;;;;;;4232973;33;20123;-65
2022/07/27 05:05:37;;;;;;;8.77;7.12;;;;;;;;;;4233241;33;20102;-63
2022/07/27 05:08:03;;;;;;;8.15;6.07;;;;;;;;;;4232990;33;20216;-63
2022/07/27 05:10:29;;;;;;;9.50;6.82;;;;;;;;;;4232974;33;20117;-63
2022/07/27 05:12:55;;;;;;;8.02;5.62;;;;;;;;;;4232823;33;20120;-65
2022/07/27 05:15:22;;;;;;;7.97;5.40;;;;;;;;;;4232966;33;20105;-64
2022/07/27 05:17:48;;;;;;;8.68;6.43;;;;;;;;;;4232835;33;20093;-64
2022/07/27 05:20:20;;;;;;;7.50;6.07;;;;;;;;;;4233126;33;20700;-65
2022/07/27 05:22:46;;;;;;;7.18;5.90;;;;;;;;;;4233042;33;20124;-65
2022/07/27 05:25:12;;;;;;;7.00;6.05;;;;;;;;;;4233095;33;20104;-64
2022/07/27 05:27:38;;;;;;;6.75;6.00;;;;;;;;;;4232842;33;20453;-64
2022/07/27 05:30:05;;;;;;;9.85;5.95;;;;;;;;;;4232949;33;20098;-65
2022/07/27 05:32:31;;;;;;;13.85;6.50;;;;;;;;;;4232826;33;20093;-71
2022/07/27 05:34:57;;;;;;;9.30;6.30;;;;;;;;;;4232872;33;20090;-64
2022/07/27 05:37:23;;;;;;;10.10;6.68;;;;;;;;;;4233658;33;20101;-66
2022/07/27 05:39:49;;;;;;;8.20;7.35;;;;;;;;;;4233512;33;20120;-66
2022/07/27 05:42:15;;;;;;;8.48;6.85;;;;;;;;;;4233600;33;20507;-64
2022/07/27 05:44:41;;;;;;;8.85;7.87;;;;;;;;;;4233933;33;20294;-65
2022/07/27 05:47:07;;;;;;;10.25;7.15;;;;;;;;;;4233509;33;20136;-65
2022/07/27 05:49:33;;;;;;;7.25;4.10;;;;;;;;;;4233500;33;20105;-64
2022/07/27 05:51:59;;;;;;;9.15;7.30;;;;;;;;;;4233488;33;20104;-64
2022/07/27 05:54:25;;;;;;;6.95;5.82;;;;;;;;;;4233461;33;20106;-65
2022/07/27 05:56:51;;;;;;;9.98;6.05;;;;;;;;;;4233040;33;20124;-65
2022/07/27 05:59:17;;;;;;;6.78;5.68;;;;;;;;;;4233453;33;20113;-64
2022/07/27 06:01:43;;;;;;;7.50;5.95;;;;;;;;;;4233402;33;20172;-64
2022/07/27 06:04:09;;;;;;;7.35;6.10;;;;;;;;;;4233406;33;20148;-64
2022/07/27 06:09:20;;;;;;;7.53;6.00;;;;;;;;;;4233394;33;20548;-64
2022/07/27 06:11:46;;;;;;;6.55;4.80;;;;;;;;;;4233379;33;20110;-64
2022/07/27 06:14:12;;;;;;;7.22;4.97;;;;;;;;;;4233251;33;20627;-64
2022/07/27 06:16:38;;;;;;;8.18;5.35;;;;;;;;;;4233291;33;20123;-65
2022/07/27 06:19:04;;;;;;;11.32;5.95;;;;;;;;;;4233463;33;20172;-64
2022/07/27 06:21:31;;;;;;;8.23;5.40;;;;;;;;;;4233328;33;20121;-65
2022/07/27 06:23:57;;;;;;;6.45;5.53;;;;;;;;;;4233143;33;20140;-65
2022/07/27 06:26:23;;;;;;;7.10;5.97;;;;;;;;;;4219617;33;20112;-65
2022/07/27 06:28:51;;;;;;;6.65;5.55;;;;;;;;;;4230899;33;20120;-65
2022/07/27 06:31:17;;;;;;;7.55;5.03;;;;;;;;;;4231098;33;20117;-65
2022/07/27 06:33:43;;;;;;;7.53;4.78;;;;;;;;;;4231039;33;20208;-64
2022/07/27 06:36:09;;;;;;;7.95;5.20;;;;;;;;;;4230922;33;20120;-64
2022/07/27 06:38:36;;;;;;;9.82;5.20;;;;;;;;;;4230943;33;20205;-65
2022/07/27 06:41:02;;;;;;;6.62;5.20;;;;;;;;;;4231266;33;20216;-65
2022/07/27 06:43:31;;;;;;;7.00;4.82;;;;;;;;;;4232701;33;20097;-65
2022/07/27 06:45:57;;;;;;;9.15;4.87;;;;;;;;;;4233091;33;20184;-65
2022/07/27 06:48:23;;;;;;;10.30;4.45;;;;;;;;;;4232953;33;20165;-65
2022/07/27 06:50:50;;;;;;;7.43;4.97;;;;;;;;;;4233038;33;20262;-65
2022/07/27 06:53:17;;;;;;;7.70;4.43;;;;;;;;;;4232916;33;20105;-65
2022/07/27 06:55:43;;;;;;;7.15;4.07;;;;;;;;;;4233015;33;20117;-65
2022/07/27 06:58:09;;;;;;;12.60;5.20;;;;;;;;;;4219825;33;20140;-65
2022/07/27 07:00:35;;;;;;;7.95;4.07;;;;;;;;;;4232924;33;20120;-65
2022/07/27 07:03:03;;;;;;;5.53;4.57;;;;;;;;;;4232902;33;20109;-65
2022/07/27 07:05:30;;;;;;;7.12;4.07;;;;;;;;;;4220002;33;20593;-65
2022/07/27 07:07:56;;;;;;;4.00;3.60;;;;;;;;;;4232102;33;20459;-65
2022/07/27 07:10:23;;;;;;;7.95;4.50;;;;;;;;;;4233072;33;20116;-65
2022/07/27 07:12:54;;;;;;;7.87;4.00;;;;;;;;;;4232678;33;20097;-64
2022/07/27 07:15:25;;;;;;;4.47;3.95;;;;;;;;;;4232783;33;20208;-64
2022/07/27 07:17:52;;;;;;;5.62;4.45;;;;;;;;;;4232709;33;20105;-66
2022/07/27 07:20:18;;;;;;;6.03;4.18;;;;;;;;;;4232207;33;20129;-65
2022/07/27 07:22:44;;;;;;;5.95;4.03;;;;;;;;;;4232599;33;20175;-66
2022/07/27 07:25:10;;;;;;;6.60;3.95;;;;;;;;;;4219744;33;20143;-66
2022/07/27 07:27:36;;;;;;;4.65;3.50;;;;;;;;;;4232667;33;20113;-66
2022/07/27 07:30:03;;;;;;;7.25;4.00;;;;;;;;;;4232686;33;20477;-65
2022/07/27 07:32:30;;;;;;;5.12;3.60;;;;;;;;;;4232638;33;20109;-65
2022/07/27 07:34:55;;;;;;;6.95;4.12;;;;;;;;;;4232385;33;20151;-65
2022/07/27 07:37:21;;;;;;;5.97;4.43;;;;;;;;;;4232611;33;20129;-65
2022/07/27 07:39:48;;;;;;;10.65;3.80;;;;;;;;;;4232640;33;20117;-66
2022/07/27 07:42:14;;;;;;;5.30;4.20;;;;;;;;;;4232566;33;20113;-66
2022/07/27 07:44:40;;;;;;;4.47;3.97;;;;;;;;;;4232760;33;20121;-63
2022/07/27 07:47:06;;;;;;;6.97;4.50;;;;;;;;;;4232528;33;20196;-64
2022/07/27 07:49:32;;;;;;;4.72;3.78;;;;;;;;;;4232568;33;20521;-64
2022/07/27 07:51:58;;;;;;;4.18;3.78;;;;;;;;;;4232467;33;20469;-61
2022/07/27 07:54:25;;;;;;;4.87;4.20;;;;;;;;;;4218862;33;20187;-64
2022/07/27 07:56:51;;;;;;;6.35;3.72;;;;;;;;;;4232222;33;20114;-63
2022/07/27 07:59:17;;;;;;;15.35;4.28;;;;;;;;;;4232392;33;20133;-65
2022/07/27 08:01:43;;;;;;;4.82;3.80;;;;;;;;;;4232356;33;20576;-66
2022/07/27 08:04:09;;;;;;;5.43;3.65;;;;;;;;;;4232358;33;20203;-64
2022/07/27 08:06:35;;;;;;;4.97;3.45;;;;;;;;;;4232342;33;20434;-65
2022/07/27 08:09:01;;;;;;;4.35;3.90;;;;;;;;;;4232324;33;20105;-65
2022/07/27 08:11:27;;;;;;;6.82;3.62;;;;;;;;;;4219280;33;20619;-65
2022/07/27 08:13:54;;;;;;;5.57;3.87;;;;;;;;;;4232170;33;20148;-66
2022/07/27 08:16:20;;;;;;;4.70;3.53;;;;;;;;;;4232254;33;20117;-66
2022/07/27 08:18:46;;;;;;;6.85;3.65;;;;;;;;;;4232017;33;20227;-66
2022/07/27 08:21:12;;;;;;;4.97;3.80;;;;;;;;;;4232195;33;20109;-65
2022/07/27 08:23:38;;;;;;;4.62;3.90;;;;;;;;;;4232087;33;20120;-65
2022/07/27 08:26:04;;;;;;;5.68;4.22;;;;;;;;;;4230156;33;20117;-64
2022/07/27 08:28:39;;;;;;;25.00;4.32;;;;;;;;;;4227798;33;20128;-65
2022/07/27 08:31:05;;;;;;;6.78;3.50;;;;;;;;;;4203699;33;20116;-65
2022/07/27 08:33:31;;;;;;;8.15;3.60;;;;;;;;;;4227935;33;20224;-65
2022/07/27 08:35:58;;;;;;;6.18;3.50;;;;;;;;;;4227574;33;20504;-66
2022/07/27 08:38:26;;;;;;;5.90;3.78;;;;;;;;;;4227560;33;20156;-65
2022/07/27 08:40:54;;;;;;;6.80;3.53;;;;;;;;;;4227788;33;20109;-65
2022/07/27 08:43:20;;;;;;;8.18;3.72;;;;;;;;;;4227626;33;20537;-66
2022/07/27 08:45:56;;;;;;;3.37;3.03;;;;;;;;;;4227463;33;20223;-67
2022/07/27 08:48:24;;;;;;;7.03;3.37;;;;;;;;;;4227323;33;20577;-65
2022/07/27 08:50:50;;;;;;;4.40;3.33;;;;;;;;;;4227445;33;20141;-66
2022/07/27 08:53:17;;;;;;;5.15;3.80;;;;;;;;;;4227352;33;20577;-66
2022/07/27 08:55:46;;;;;;;6.55;4.20;;;;;;;;;;4229359;33;20124;-64
2022/07/27 08:58:12;;;;;;;6.60;3.50;;;;;;;;;;4223726;33;20506;-66
2022/07/27 09:00:41;;;;;;;4.90;3.97;;;;;;;;;;4217834;34;20469;-66
2022/07/27 09:03:10;;;;;;;8.52;3.85;;;;;;;;;;4217416;33;20546;-64
2022/07/27 09:05:54;;;;;;;5.78;3.75;;;;;;;;;;4217620;34;20561;-70
2022/07/27 09:08:25;;;;;;;5.57;3.50;;;;;;;;;;4212597;33;20177;-72
2022/07/27 09:10:53;;;;;;;5.97;4.20;;;;;;;;;;4232103;33;20188;-63
2022/07/27 09:13:32;;;;;;;15.23;3.83;;;;;;;;;;4219008;33;20196;-62
2022/07/27 09:15:59;;;;;;;4.62;3.70;;;;;;;;;;4207446;33;20212;-63
2022/07/27 09:18:28;;;;;;;4.18;3.78;;;;;;;;;;4224329;33;20101;-65
2022/07/27 09:21:20;;;;;;;6.28;4.00;;;;;;;;;;4193653;34;20113;-64
